createdAt,value
2022-10-20T00:00:48.198Z,94.53
2022-10-20T00:02:48.291Z,94.68
2022-10-20T00:03:48.316Z,94.78
2022-10-20T00:04:48.381Z,94.78
2022-10-20T00:05:48.370Z,94.89
2022-10-20T00:06:48.396Z,94.89
2022-10-20T00:07:48.402Z,94.78
2022-10-20T00:08:48.552Z,94.64
2022-10-20T00:09:48.450Z,94.43
2022-10-20T00:10:48.462Z,94.47
2022-10-20T00:11:48.454Z,94.68
2022-10-20T00:12:48.461Z,94.53
2022-10-20T00:13:48.501Z,94.43
2022-10-20T00:14:48.521Z,94.02
2022-10-20T00:15:48.570Z,93.81
2022-10-20T00:16:48.604Z,93.71
2022-10-20T00:17:48.653Z,93.71
2022-10-20T00:18:48.641Z,93.81
2022-10-20T00:19:48.641Z,93.91
2022-10-20T00:20:48.696Z,93.60
2022-10-20T00:21:48.762Z,93.60
2022-10-20T00:22:48.783Z,93.71
2022-10-20T00:23:48.833Z,93.50
2022-10-20T00:24:48.828Z,93.40
2022-10-20T00:25:48.827Z,93.60
2022-10-20T00:26:48.839Z,93.81
2022-10-20T00:27:48.853Z,93.81
2022-10-20T00:28:48.855Z,93.91
2022-10-20T00:29:48.863Z,94.06
2022-10-20T00:30:48.866Z,94.17
2022-10-20T00:31:48.845Z,94.37
2022-10-20T00:32:48.842Z,94.27
2022-10-20T00:33:48.907Z,94.12
2022-10-20T00:34:48.906Z,93.91
2022-10-20T00:35:48.929Z,93.81
2022-10-20T00:36:51.307Z,93.71
2022-10-20T00:37:48.976Z,93.50
2022-10-20T00:38:48.996Z,93.30
2022-10-20T00:39:49.031Z,93.30
2022-10-20T00:40:49.006Z,93.40
2022-10-20T00:41:49.045Z,93.30
2022-10-20T00:42:49.050Z,93.40
2022-10-20T00:43:49.059Z,93.50
2022-10-20T00:44:49.078Z,93.71
2022-10-20T00:45:49.089Z,93.50
2022-10-20T00:46:49.118Z,93.50
2022-10-20T00:47:49.171Z,93.50
2022-10-20T00:48:49.172Z,93.40
2022-10-20T00:49:49.228Z,93.30
2022-10-20T00:50:49.309Z,92.88
2022-10-20T00:51:49.299Z,92.68
2022-10-20T00:52:49.312Z,92.68
2022-10-20T00:53:49.359Z,92.63
2022-10-20T00:54:49.400Z,92.68
2022-10-20T00:55:49.457Z,92.43
2022-10-20T00:56:49.485Z,92.22
2022-10-20T00:57:49.511Z,92.22
2022-10-20T00:58:49.510Z,92.37
2022-10-20T00:59:49.533Z,92.37
2022-10-20T01:00:49.521Z,92.68
2022-10-20T01:01:49.576Z,92.88
2022-10-20T01:02:49.561Z,93.30
2022-10-20T01:03:49.543Z,93.40
2022-10-20T01:04:49.591Z,93.40
2022-10-20T01:05:49.604Z,93.30
2022-10-20T01:06:49.632Z,93.09
2022-10-20T01:07:49.642Z,92.88
2022-10-20T01:08:49.691Z,92.78
2022-10-20T01:09:49.723Z,92.78
2022-10-20T01:10:49.713Z,92.78
2022-10-20T01:11:49.710Z,92.68
2022-10-20T01:12:49.703Z,92.53
2022-10-20T01:13:49.733Z,91.81
2022-10-20T01:14:49.795Z,91.50
2022-10-20T01:15:49.831Z,91.40
2022-10-20T01:16:49.898Z,91.30
2022-10-20T01:17:49.884Z,91.30
2022-10-20T01:18:49.954Z,91.15
2022-10-20T01:19:49.954Z,91.15
2022-10-20T01:20:50.026Z,91.05
2022-10-20T01:21:50.005Z,91.05
2022-10-20T01:22:50.047Z,91.05
2022-10-20T01:23:50.076Z,91.19
2022-10-20T01:24:50.077Z,91.50
2022-10-20T01:25:50.093Z,91.40
2022-10-20T01:26:50.089Z,91.50
2022-10-20T01:27:50.146Z,91.40
2022-10-20T01:28:50.139Z,91.40
2022-10-20T01:29:50.196Z,91.60
2022-10-20T01:30:50.267Z,91.60
2022-10-20T01:31:50.266Z,91.50
2022-10-20T01:32:50.298Z,91.60
2022-10-20T01:33:50.278Z,91.71
2022-10-20T01:34:52.901Z,91.81
2022-10-20T01:35:50.387Z,91.91
2022-10-20T01:36:50.407Z,91.91
2022-10-20T01:37:50.829Z,91.71
2022-10-20T01:38:50.429Z,91.46
2022-10-20T01:39:50.436Z,91.40
2022-10-20T01:40:50.537Z,91.40
2022-10-20T01:41:50.499Z,91.40
2022-10-20T01:42:50.540Z,91.50
2022-10-20T01:43:50.552Z,91.60
2022-10-20T01:44:50.579Z,91.36
2022-10-20T01:45:50.590Z,91.15
2022-10-20T01:46:50.612Z,91.15
2022-10-20T01:47:50.610Z,91.05
2022-10-20T01:48:50.660Z,91.15
2022-10-20T01:49:50.682Z,91.40
2022-10-20T01:50:52.410Z,91.50
2022-10-20T01:51:50.691Z,91.50
2022-10-20T01:52:50.711Z,91.60
2022-10-20T01:53:50.701Z,91.71
2022-10-20T01:54:50.732Z,91.71
2022-10-20T01:55:50.783Z,91.71
2022-10-20T01:56:50.802Z,91.71
2022-10-20T01:57:50.842Z,91.60
2022-10-20T01:58:50.863Z,91.50
2022-10-20T01:59:50.862Z,91.46
2022-10-20T02:00:50.927Z,91.36
2022-10-20T02:01:50.937Z,91.60
2022-10-20T02:02:50.914Z,91.60
2022-10-20T02:03:50.974Z,91.46
2022-10-20T02:04:50.983Z,91.36
2022-10-20T02:05:51.024Z,91.15
2022-10-20T02:06:51.114Z,91.15
2022-10-20T02:07:51.154Z,91.25
2022-10-20T02:08:51.194Z,91.36
2022-10-20T02:09:51.253Z,91.25
2022-10-20T02:10:51.255Z,91.25
2022-10-20T02:11:51.309Z,91.46
2022-10-20T02:12:51.363Z,91.50
2022-10-20T02:13:51.386Z,91.50
2022-10-20T02:14:51.404Z,91.71
2022-10-20T02:15:51.416Z,91.56
2022-10-20T02:16:51.430Z,91.36
2022-10-20T02:17:51.465Z,91.36
2022-10-20T02:18:51.524Z,91.25
2022-10-20T02:19:51.530Z,91.15
2022-10-20T02:20:51.537Z,91.36
2022-10-20T02:21:51.585Z,91.36
2022-10-20T02:22:51.607Z,91.25
2022-10-20T02:23:51.658Z,90.84
2022-10-20T02:24:51.703Z,90.73
2022-10-20T02:25:51.748Z,90.73
2022-10-20T02:26:51.838Z,90.84
2022-10-20T02:27:51.899Z,91.05
2022-10-20T02:28:51.877Z,91.25
2022-10-20T02:29:51.909Z,91.25
2022-10-20T02:30:51.958Z,91.25
2022-10-20T02:31:51.967Z,91.50
2022-10-20T02:32:52.017Z,91.46
2022-10-20T02:33:52.030Z,91.25
2022-10-20T02:34:52.034Z,91.05
2022-10-20T02:35:52.041Z,90.84
2022-10-20T02:36:52.121Z,90.84
2022-10-20T02:37:52.112Z,90.94
2022-10-20T02:38:52.150Z,91.05
2022-10-20T02:39:52.131Z,90.94
2022-10-20T02:40:52.220Z,91.05
2022-10-20T02:41:52.261Z,91.05
2022-10-20T02:42:52.302Z,91.05
2022-10-20T02:43:52.291Z,91.15
2022-10-20T02:44:52.363Z,91.05
2022-10-20T02:45:52.403Z,90.94
2022-10-20T02:46:52.453Z,90.94
2022-10-20T02:47:52.493Z,90.94
2022-10-20T02:48:52.553Z,90.84
2022-10-20T02:49:52.553Z,90.73
2022-10-20T02:50:52.574Z,90.84
2022-10-20T02:51:52.614Z,90.94
2022-10-20T02:52:52.625Z,90.94
2022-10-20T02:53:52.644Z,91.05
2022-10-20T02:54:52.652Z,91.36
2022-10-20T02:55:52.665Z,91.60
2022-10-20T02:56:52.685Z,91.56
2022-10-20T02:57:52.685Z,91.60
2022-10-20T02:58:52.715Z,91.71
2022-10-20T02:59:52.734Z,91.81
2022-10-20T03:00:52.757Z,91.81
2022-10-20T03:01:52.906Z,91.66
2022-10-20T03:02:52.817Z,91.66
2022-10-20T03:03:52.827Z,91.46
2022-10-20T03:04:52.874Z,91.56
2022-10-20T03:05:52.928Z,91.56
2022-10-20T03:06:52.937Z,91.46
2022-10-20T03:07:53.007Z,91.56
2022-10-20T03:08:53.116Z,91.66
2022-10-20T03:09:53.105Z,91.81
2022-10-20T03:10:53.131Z,91.81
2022-10-20T03:11:53.148Z,91.91
2022-10-20T03:12:53.166Z,91.91
2022-10-20T03:13:53.218Z,92.02
2022-10-20T03:14:53.249Z,92.22
2022-10-20T03:15:53.289Z,92.22
2022-10-20T03:16:53.372Z,92.22
2022-10-20T03:17:53.350Z,92.08
2022-10-20T03:18:53.411Z,91.91
2022-10-20T03:19:53.450Z,92.02
2022-10-20T03:20:53.470Z,92.12
2022-10-20T03:21:53.499Z,92.33
2022-10-20T03:22:53.490Z,92.53
2022-10-20T03:23:53.541Z,92.43
2022-10-20T03:24:53.550Z,92.43
2022-10-20T03:25:53.550Z,92.53
2022-10-20T03:26:53.611Z,92.43
2022-10-20T03:27:53.641Z,92.29
2022-10-20T03:28:53.642Z,92.22
2022-10-20T03:29:53.661Z,92.33
2022-10-20T03:30:53.713Z,92.43
2022-10-20T03:31:53.738Z,92.33
2022-10-20T03:32:53.740Z,92.53
2022-10-20T03:33:53.762Z,92.53
2022-10-20T03:34:53.753Z,92.63
2022-10-20T03:35:53.783Z,92.84
2022-10-20T03:36:53.802Z,92.94
2022-10-20T03:37:53.803Z,92.94
2022-10-20T03:38:53.870Z,93.05
2022-10-20T03:39:53.893Z,93.05
2022-10-20T03:40:53.976Z,93.19
2022-10-20T03:41:53.964Z,93.19
2022-10-20T03:42:54.015Z,93.30
2022-10-20T03:43:54.044Z,93.40
2022-10-20T03:44:54.075Z,93.46
2022-10-20T03:45:54.085Z,93.25
2022-10-20T03:46:54.089Z,93.15
2022-10-20T03:47:54.127Z,93.30
2022-10-20T03:48:54.146Z,93.40
2022-10-20T03:49:54.204Z,93.25
2022-10-20T03:50:54.258Z,93.15
2022-10-20T03:51:54.274Z,93.15
2022-10-20T03:52:54.336Z,92.84
2022-10-20T03:53:54.380Z,92.74
2022-10-20T03:54:54.459Z,92.63
2022-10-20T03:55:54.467Z,92.53
2022-10-20T03:56:54.530Z,92.74
2022-10-20T03:57:54.566Z,92.63
2022-10-20T03:58:54.594Z,92.53
2022-10-20T03:59:54.626Z,92.63
2022-10-20T04:00:54.651Z,92.74
2022-10-20T04:01:54.748Z,92.74
2022-10-20T04:02:54.769Z,92.74
2022-10-20T04:03:54.781Z,92.84
2022-10-20T04:04:54.819Z,93.05
2022-10-20T04:05:54.888Z,93.15
2022-10-20T04:06:54.889Z,93.25
2022-10-20T04:07:54.929Z,93.40
2022-10-20T04:08:55.064Z,93.46
2022-10-20T04:09:54.983Z,93.25
2022-10-20T04:10:54.982Z,93.15
2022-10-20T04:11:55.050Z,93.05
2022-10-20T04:12:55.131Z,93.25
2022-10-20T04:13:55.184Z,93.25
2022-10-20T04:14:55.152Z,93.35
2022-10-20T04:15:55.182Z,93.15
2022-10-20T04:16:55.192Z,93.05
2022-10-20T04:17:55.271Z,93.05
2022-10-20T04:18:55.266Z,93.05
2022-10-20T04:19:55.262Z,93.05
2022-10-20T04:20:55.342Z,93.09
2022-10-20T04:21:55.352Z,93.40
2022-10-20T04:22:55.394Z,93.50
2022-10-20T04:23:55.382Z,93.50
2022-10-20T04:24:55.413Z,93.30
2022-10-20T04:25:55.415Z,93.40
2022-10-20T04:26:55.423Z,93.40
2022-10-20T04:27:55.473Z,93.60
2022-10-20T04:28:55.454Z,93.50
2022-10-20T04:29:55.469Z,93.40
2022-10-20T04:30:55.465Z,93.40
2022-10-20T04:31:55.465Z,93.40
2022-10-20T04:32:55.465Z,93.60
2022-10-20T04:33:55.494Z,93.85
2022-10-20T04:34:55.485Z,94.27
2022-10-20T04:35:55.497Z,94.17
2022-10-20T04:36:55.487Z,94.17
2022-10-20T04:37:55.496Z,94.47
2022-10-20T04:38:55.517Z,94.57
2022-10-20T04:39:55.510Z,94.57
2022-10-20T04:40:56.505Z,94.47
2022-10-20T04:41:55.567Z,94.47
2022-10-20T04:42:55.567Z,94.47
2022-10-20T04:43:55.607Z,94.57
2022-10-20T04:44:55.629Z,94.78
2022-10-20T04:45:55.628Z,95.03
2022-10-20T04:46:55.622Z,95.20
2022-10-20T04:47:55.624Z,95.20
2022-10-20T04:48:55.629Z,94.99
2022-10-20T04:49:55.628Z,94.68
2022-10-20T04:50:55.630Z,94.78
2022-10-20T04:52:00.629Z,94.78
2022-10-20T04:52:55.678Z,94.99
2022-10-20T04:53:55.751Z,94.89
2022-10-20T04:54:55.729Z,94.89
2022-10-20T04:55:55.763Z,94.78
2022-10-20T04:56:55.810Z,94.78
2022-10-20T04:57:55.821Z,94.68
2022-10-20T04:58:55.822Z,94.68
2022-10-20T04:59:55.821Z,94.68
2022-10-20T05:00:55.831Z,94.78
2022-10-20T05:01:55.949Z,94.99
2022-10-20T05:02:55.901Z,94.78
2022-10-20T05:03:55.911Z,94.57
2022-10-20T05:04:56.011Z,94.37
2022-10-20T05:05:56.002Z,94.27
2022-10-20T05:06:56.012Z,94.17
2022-10-20T05:07:56.033Z,94.17
2022-10-20T05:08:56.087Z,94.17
2022-10-20T05:09:56.032Z,93.85
2022-10-20T05:10:56.073Z,93.50
2022-10-20T05:11:56.112Z,93.09
2022-10-20T05:12:56.153Z,92.88
2022-10-20T05:13:56.193Z,92.78
2022-10-20T05:14:56.213Z,92.57
2022-10-20T05:15:56.256Z,92.33
2022-10-20T05:16:56.253Z,92.33
2022-10-20T05:17:56.254Z,92.22
2022-10-20T05:18:56.291Z,92.47
2022-10-20T05:19:56.335Z,92.47
2022-10-20T05:21:08.330Z,92.33
2022-10-20T05:21:56.448Z,91.91
2022-10-20T05:22:56.467Z,91.60
2022-10-20T05:23:56.510Z,91.60
2022-10-20T05:25:00.849Z,91.50
2022-10-20T05:25:56.586Z,91.60
2022-10-20T05:26:56.596Z,91.71
2022-10-20T05:27:56.596Z,91.60
2022-10-20T05:28:56.645Z,91.40
2022-10-20T05:29:56.597Z,91.19
2022-10-20T05:30:59.214Z,90.99
2022-10-20T05:31:56.667Z,90.99
2022-10-20T05:32:56.657Z,90.99
2022-10-20T05:33:56.707Z,91.09
2022-10-20T05:34:56.748Z,91.30
2022-10-20T05:35:56.759Z,91.60
2022-10-20T05:36:56.847Z,91.71
2022-10-20T05:37:56.842Z,91.50
2022-10-20T05:38:56.906Z,91.50
2022-10-20T05:39:56.949Z,91.50
2022-10-20T05:40:56.947Z,91.60
2022-10-20T05:41:56.930Z,90.99
2022-10-20T05:42:56.939Z,90.88
2022-10-20T05:43:56.967Z,90.78
2022-10-20T05:44:56.962Z,90.88
2022-10-20T05:45:56.977Z,90.67
2022-10-20T05:46:56.987Z,90.47
2022-10-20T05:47:57.002Z,90.67
2022-10-20T05:48:57.029Z,90.78
2022-10-20T05:49:57.081Z,90.88
2022-10-20T05:50:57.115Z,90.99
2022-10-20T05:51:57.131Z,90.99
2022-10-20T05:52:57.172Z,90.78
2022-10-20T05:53:57.173Z,90.78
2022-10-20T05:54:57.182Z,90.57
2022-10-20T05:55:57.194Z,90.47
2022-10-20T05:56:57.230Z,90.47
2022-10-20T05:57:57.273Z,90.37
2022-10-20T05:58:57.252Z,90.22
2022-10-20T05:59:57.313Z,90.12
2022-10-20T06:00:57.293Z,90.22
2022-10-20T06:01:57.344Z,90.37
2022-10-20T06:02:57.304Z,90.22
2022-10-20T06:03:57.383Z,90.12
2022-10-20T06:04:57.336Z,90.12
2022-10-20T06:05:57.334Z,90.01
2022-10-20T06:06:57.364Z,90.12
2022-10-20T06:07:57.358Z,90.12
2022-10-20T06:08:57.371Z,90.01
2022-10-20T06:09:57.335Z,90.01
2022-10-20T06:10:57.366Z,89.91
2022-10-20T06:11:57.498Z,89.81
2022-10-20T06:12:57.486Z,89.61
2022-10-20T06:13:57.456Z,89.50
2022-10-20T06:14:57.496Z,89.50
2022-10-20T06:15:57.546Z,89.40
2022-10-20T06:16:57.567Z,89.50
2022-10-20T06:17:57.576Z,89.09
2022-10-20T06:18:57.657Z,88.74
2022-10-20T06:19:57.678Z,88.53
2022-10-20T06:20:57.686Z,88.43
2022-10-20T06:21:59.283Z,88.23
2022-10-20T06:22:57.769Z,88.02
2022-10-20T06:23:57.791Z,88.02
2022-10-20T06:24:57.818Z,88.12
2022-10-20T06:25:57.789Z,88.12
2022-10-20T06:26:57.858Z,87.92
2022-10-20T06:27:57.878Z,87.81
2022-10-20T06:29:03.536Z,87.81
2022-10-20T06:29:57.955Z,87.81
2022-10-20T06:30:57.900Z,87.57
2022-10-20T06:31:57.912Z,87.57
2022-10-20T06:32:57.970Z,87.46
2022-10-20T06:33:58.671Z,87.36
2022-10-20T06:34:57.980Z,87.15
2022-10-20T06:35:58.003Z,87.05
2022-10-20T06:36:58.020Z,86.64
2022-10-20T06:37:58.032Z,86.29
2022-10-20T06:38:58.082Z,85.74
2022-10-20T06:39:58.062Z,85.12
2022-10-20T06:40:58.072Z,84.71
2022-10-20T06:41:58.112Z,84.36
2022-10-20T06:42:58.165Z,84.30
2022-10-20T06:43:58.173Z,84.50
2022-10-20T06:44:58.203Z,84.50
2022-10-20T06:45:58.213Z,84.61
2022-10-20T06:46:58.246Z,84.71
2022-10-20T06:47:58.274Z,84.50
2022-10-20T06:48:59.102Z,84.71
2022-10-20T06:49:58.374Z,84.81
2022-10-20T06:50:58.405Z,84.91
2022-10-20T06:51:58.445Z,84.91
2022-10-20T06:52:58.415Z,85.02
2022-10-20T06:53:58.495Z,85.02
2022-10-20T06:54:58.494Z,85.12
2022-10-20T06:55:58.536Z,85.12
2022-10-20T06:56:58.585Z,85.12
2022-10-20T06:57:58.619Z,85.22
2022-10-20T06:58:58.628Z,85.12
2022-10-20T06:59:58.666Z,84.91
2022-10-20T07:00:58.738Z,84.71
2022-10-20T07:01:58.807Z,84.71
2022-10-20T07:02:58.737Z,84.50
2022-10-20T07:03:58.749Z,84.26
2022-10-20T07:04:58.768Z,83.85
2022-10-20T07:05:58.788Z,83.85
2022-10-20T07:06:58.831Z,83.40
2022-10-20T07:07:58.864Z,83.19
2022-10-20T07:08:59.000Z,82.68
2022-10-20T07:09:58.929Z,82.54
2022-10-20T07:10:58.930Z,82.57
2022-10-20T07:11:58.975Z,82.57
2022-10-20T07:12:58.972Z,82.68
2022-10-20T07:13:58.969Z,82.57
2022-10-20T07:14:59.030Z,82.43
2022-10-20T07:15:59.041Z,82.33
2022-10-20T07:16:59.143Z,82.43
2022-10-20T07:17:59.118Z,82.68
2022-10-20T07:18:59.130Z,82.95
2022-10-20T07:19:59.131Z,82.95
2022-10-20T07:20:59.124Z,82.60
2022-10-20T07:21:59.172Z,82.13
2022-10-20T07:22:59.194Z,81.99
2022-10-20T07:23:59.242Z,81.68
2022-10-20T07:24:59.303Z,81.43
2022-10-20T07:25:59.325Z,80.82
2022-10-20T07:26:59.334Z,80.62
2022-10-20T07:27:59.334Z,80.58
2022-10-20T07:28:59.363Z,80.27
2022-10-20T07:29:59.444Z,80.27
2022-10-20T07:30:59.398Z,79.93
2022-10-20T07:32:01.360Z,79.72
2022-10-20T07:32:59.396Z,79.93
2022-10-20T07:34:06.972Z,79.41
2022-10-20T07:34:59.468Z,79.52
2022-10-20T07:35:59.538Z,79.17
2022-10-20T07:36:59.496Z,78.97
2022-10-20T07:37:59.510Z,78.72
2022-10-20T07:38:59.582Z,77.67
2022-10-20T07:39:59.618Z,77.36
2022-10-20T07:41:00.815Z,77.76
2022-10-20T07:41:59.647Z,77.01
2022-10-20T07:42:59.670Z,76.16
2022-10-20T07:43:59.678Z,75.89
2022-10-20T07:44:59.709Z,76.09
2022-10-20T07:45:59.740Z,76.30
2022-10-20T07:46:59.730Z,76.71
2022-10-20T07:47:59.722Z,76.91
2022-10-20T07:49:23.926Z,77.70
2022-10-20T07:49:59.841Z,79.17
2022-10-20T07:50:59.869Z,79.93
2022-10-20T07:51:59.882Z,80.44
2022-10-20T07:52:59.883Z,80.74
2022-10-20T07:54:00.698Z,80.99
2022-10-20T07:55:07.515Z,81.50
2022-10-20T07:55:59.934Z,81.71
2022-10-20T07:56:59.946Z,81.67
2022-10-20T07:57:59.994Z,81.36
2022-10-20T07:59:00.050Z,81.15
2022-10-20T08:00:00.074Z,81.36
2022-10-20T08:01:00.097Z,81.36
2022-10-20T08:02:00.548Z,81.67
2022-10-20T08:03:00.121Z,81.67
2022-10-20T08:04:00.107Z,82.08
2022-10-20T08:05:00.129Z,82.18
2022-10-20T08:06:00.180Z,82.08
2022-10-20T08:07:00.221Z,82.18
2022-10-20T08:08:00.278Z,81.98
2022-10-20T08:09:00.391Z,82.39
2022-10-20T08:10:00.309Z,82.28
2022-10-20T08:11:00.340Z,82.28
2022-10-20T08:12:00.391Z,82.39
2022-10-20T08:13:00.442Z,82.49
2022-10-20T08:14:00.486Z,82.28
2022-10-20T08:15:00.538Z,82.24
2022-10-20T08:16:01.231Z,82.28
2022-10-20T08:17:02.296Z,82.35
2022-10-20T08:18:00.600Z,82.14
2022-10-20T08:19:01.534Z,82.14
2022-10-20T08:20:10.321Z,82.24
2022-10-20T08:21:00.789Z,82.45
2022-10-20T08:22:00.822Z,82.45
2022-10-20T08:23:00.832Z,82.65
2022-10-20T08:24:00.919Z,82.65
2022-10-20T08:25:00.963Z,82.65
2022-10-20T08:26:00.993Z,82.86
2022-10-20T08:27:01.062Z,83.06
2022-10-20T08:28:01.126Z,82.65
2022-10-20T08:29:01.196Z,82.76
2022-10-20T08:30:22.323Z,82.65
2022-10-20T08:31:01.173Z,82.86
2022-10-20T08:32:01.156Z,82.86
2022-10-20T08:33:01.217Z,83.06
2022-10-20T08:34:01.262Z,82.82
2022-10-20T08:35:01.305Z,83.06
2022-10-20T08:36:01.328Z,82.92
2022-10-20T08:37:01.375Z,82.82
2022-10-20T08:38:01.458Z,82.92
2022-10-20T08:39:05.096Z,82.82
2022-10-20T08:40:01.427Z,83.03
2022-10-20T08:41:01.478Z,83.03
2022-10-20T08:42:09.598Z,82.92
2022-10-20T08:43:01.577Z,82.82
2022-10-20T08:44:01.629Z,82.57
2022-10-20T08:45:01.600Z,82.48
2022-10-20T08:46:01.609Z,82.27
2022-10-20T08:47:01.639Z,82.17
2022-10-20T08:48:01.708Z,82.13
2022-10-20T08:49:01.701Z,81.93
2022-10-20T08:50:01.772Z,82.13
2022-10-20T08:51:01.771Z,82.03
2022-10-20T08:52:01.802Z,82.03
2022-10-20T08:53:01.851Z,81.82
2022-10-20T08:54:01.912Z,81.82
2022-10-20T08:55:01.971Z,81.82
2022-10-20T08:56:02.023Z,81.58
2022-10-20T08:57:02.062Z,81.27
2022-10-20T08:58:02.133Z,81.38
2022-10-20T08:59:02.133Z,81.48
2022-10-20T09:00:05.681Z,81.41
2022-10-20T09:01:02.193Z,81.48
2022-10-20T09:02:02.321Z,81.58
2022-10-20T09:03:02.277Z,81.48
2022-10-20T09:04:02.274Z,81.17
2022-10-20T09:05:02.319Z,81.24
2022-10-20T09:06:02.344Z,80.83
2022-10-20T09:07:02.353Z,80.83
2022-10-20T09:08:02.404Z,80.62
2022-10-20T09:09:02.528Z,80.28
2022-10-20T09:10:02.407Z,79.97
2022-10-20T09:11:02.468Z,79.63
2022-10-20T09:12:02.460Z,78.98
2022-10-20T09:13:02.516Z,78.12
2022-10-20T09:14:02.509Z,77.34
2022-10-20T09:15:02.506Z,78.30
2022-10-20T09:16:02.557Z,78.71
2022-10-20T09:17:02.587Z,78.77
2022-10-20T09:18:02.618Z,78.16
2022-10-20T09:19:02.673Z,78.06
2022-10-20T09:20:02.718Z,79.12
2022-10-20T09:21:02.789Z,78.88
2022-10-20T09:22:02.839Z,78.23
2022-10-20T09:23:07.843Z,77.21
2022-10-20T09:24:02.890Z,77.31
2022-10-20T09:25:02.941Z,77.11
2022-10-20T09:26:02.921Z,77.27
2022-10-20T09:27:02.960Z,76.90
2022-10-20T09:28:03.020Z,77.11
2022-10-20T09:29:12.885Z,76.87
2022-10-20T09:30:03.073Z,76.76
2022-10-20T09:31:03.092Z,76.56
2022-10-20T09:32:18.061Z,76.22
2022-10-20T09:33:03.248Z,75.78
2022-10-20T09:34:03.132Z,75.51
2022-10-20T09:35:03.162Z,76.46
2022-10-20T09:36:03.175Z,75.71
2022-10-20T09:37:03.264Z,75.60
2022-10-20T09:38:03.265Z,75.98
2022-10-20T09:39:03.305Z,75.37
2022-10-20T09:40:03.355Z,75.27
2022-10-20T09:41:03.417Z,75.51
2022-10-20T09:43:03.489Z,76.97
2022-10-20T09:44:03.475Z,76.56
2022-10-20T09:45:03.487Z,77.07
2022-10-20T09:46:03.548Z,76.66
2022-10-20T09:47:03.573Z,77.17
2022-10-20T09:48:03.632Z,76.76
2022-10-20T09:49:03.679Z,76.46
2022-10-20T09:50:03.652Z,76.46
2022-10-20T09:51:03.752Z,76.42
2022-10-20T09:52:03.754Z,76.53
2022-10-20T09:53:03.791Z,75.71
2022-10-20T09:54:03.855Z,75.81
2022-10-20T09:55:03.831Z,75.67
2022-10-20T09:56:03.931Z,75.57
2022-10-20T09:57:03.953Z,74.99
2022-10-20T09:58:04.033Z,73.91
2022-10-20T09:59:04.035Z,74.21
2022-10-20T10:00:18.853Z,75.06
2022-10-20T10:01:04.153Z,75.16
2022-10-20T10:02:04.154Z,75.02
2022-10-20T10:03:04.215Z,74.21
2022-10-20T10:04:07.846Z,74.93
2022-10-20T10:05:04.284Z,75.16
2022-10-20T10:06:04.345Z,75.16
2022-10-20T10:07:04.375Z,74.86
2022-10-20T10:08:04.406Z,74.96
2022-10-20T10:09:04.572Z,74.82
2022-10-20T10:10:08.107Z,74.82
2022-10-20T10:11:04.548Z,74.93
2022-10-20T10:12:04.588Z,74.41
2022-10-20T10:13:04.568Z,74.72
2022-10-20T10:14:04.619Z,74.52
2022-10-20T10:15:04.645Z,74.62
2022-10-20T10:16:04.678Z,74.18
2022-10-20T10:17:04.719Z,73.33
2022-10-20T10:18:04.770Z,73.26
2022-10-20T10:19:04.947Z,73.33
2022-10-20T10:20:04.878Z,72.69
2022-10-20T10:21:04.884Z,72.14
2022-10-20T10:22:05.010Z,72.04
2022-10-20T10:23:04.971Z,71.94
2022-10-20T10:24:05.002Z,71.40
2022-10-20T10:25:05.012Z,70.65
2022-10-20T10:26:05.019Z,70.01
2022-10-20T10:27:05.053Z,69.07
2022-10-20T10:28:05.123Z,69.27
2022-10-20T10:29:05.148Z,68.63
2022-10-20T10:30:05.138Z,68.63
2022-10-20T10:31:05.121Z,68.52
2022-10-20T10:32:05.173Z,67.55
2022-10-20T10:33:05.197Z,67.08
2022-10-20T10:34:05.234Z,67.18
2022-10-20T10:35:05.265Z,68.23
2022-10-20T10:36:05.256Z,67.99
2022-10-20T10:37:05.308Z,67.25
2022-10-20T10:38:05.335Z,66.94
2022-10-20T10:39:05.404Z,67.61
2022-10-20T10:40:05.387Z,68.90
2022-10-20T10:41:05.387Z,69.84
2022-10-20T10:42:05.460Z,70.25
2022-10-20T10:43:05.429Z,70.68
2022-10-20T10:44:05.469Z,71.43
2022-10-20T10:45:05.530Z,71.30
2022-10-20T10:46:05.580Z,70.68
2022-10-20T10:47:05.600Z,70.89
2022-10-20T10:48:05.674Z,70.86
2022-10-20T10:49:05.696Z,69.64
2022-10-20T10:50:05.735Z,67.22
2022-10-20T10:51:05.763Z,66.47
2022-10-20T10:52:05.823Z,65.64
2022-10-20T10:53:05.823Z,65.59
2022-10-20T10:54:10.794Z,66.41
2022-10-20T10:55:05.863Z,66.30
2022-10-20T10:56:05.929Z,65.73
2022-10-20T10:57:07.968Z,64.59
2022-10-20T10:58:05.943Z,63.62
2022-10-20T10:59:05.947Z,63.45
2022-10-20T11:00:05.994Z,64.62
2022-10-20T11:01:06.027Z,66.10
2022-10-20T11:02:06.006Z,66.38
2022-10-20T11:03:06.057Z,65.70
2022-10-20T11:04:06.096Z,66.94
2022-10-20T11:05:06.384Z,67.68
2022-10-20T11:06:07.095Z,68.23
2022-10-20T11:07:06.177Z,68.52
2022-10-20T11:08:06.217Z,68.70
2022-10-20T11:09:06.330Z,68.52
2022-10-20T11:10:07.218Z,69.37
2022-10-20T11:11:06.262Z,69.98
2022-10-20T11:12:06.269Z,70.39
2022-10-20T11:13:06.319Z,70.18
2022-10-20T11:14:06.414Z,69.92
2022-10-20T11:15:06.566Z,69.31
2022-10-20T11:16:06.519Z,69.74
2022-10-20T11:17:06.394Z,69.84
2022-10-20T11:18:13.112Z,69.57
2022-10-20T11:19:06.402Z,68.56
2022-10-20T11:20:06.654Z,68.70
2022-10-20T11:21:06.479Z,69.17
2022-10-20T11:22:09.408Z,68.77
2022-10-20T11:23:06.494Z,69.84
2022-10-20T11:24:06.550Z,70.39
2022-10-20T11:25:07.494Z,71.23
2022-10-20T11:26:06.580Z,71.44
2022-10-20T11:27:06.612Z,71.64
2022-10-20T11:28:06.585Z,71.80
2022-10-20T11:29:06.565Z,71.20
2022-10-20T11:30:06.608Z,71.00
2022-10-20T11:31:06.709Z,70.86
2022-10-20T11:32:06.728Z,70.65
2022-10-20T11:33:07.736Z,71.00
2022-10-20T11:34:07.467Z,71.09
2022-10-20T11:35:06.850Z,71.57
2022-10-20T11:36:09.372Z,71.26
2022-10-20T11:37:06.888Z,71.70
2022-10-20T11:38:06.869Z,71.40
2022-10-20T11:39:06.879Z,72.14
2022-10-20T11:40:08.671Z,72.45
2022-10-20T11:41:06.882Z,72.55
2022-10-20T11:42:06.931Z,72.55
2022-10-20T11:43:10.166Z,72.45
2022-10-20T11:44:06.970Z,72.65
2022-10-20T11:45:07.010Z,72.75
2022-10-20T11:46:07.042Z,72.45
2022-10-20T11:47:07.133Z,72.45
2022-10-20T11:48:07.072Z,72.41
2022-10-20T11:49:07.963Z,71.70
2022-10-20T11:50:07.123Z,71.91
2022-10-20T11:51:07.188Z,71.70
2022-10-20T11:52:07.245Z,72.41
2022-10-20T11:53:07.263Z,72.21
2022-10-20T11:54:07.264Z,72.08
2022-10-20T11:55:07.324Z,72.08
2022-10-20T11:56:07.499Z,71.47
2022-10-20T11:57:07.407Z,71.26
2022-10-20T11:58:07.444Z,71.06
2022-10-20T11:59:07.467Z,71.57
2022-10-20T12:00:07.529Z,71.47
2022-10-20T12:01:07.476Z,71.67
2022-10-20T12:02:09.242Z,71.37
2022-10-20T12:03:07.547Z,71.16
2022-10-20T12:04:07.549Z,71.80
2022-10-20T12:05:07.548Z,72.21
2022-10-20T12:06:09.955Z,72.11
2022-10-20T12:07:07.568Z,72.11
2022-10-20T12:08:28.146Z,71.88
2022-10-20T12:09:07.689Z,71.57
2022-10-20T12:10:07.609Z,71.06
2022-10-20T12:11:07.611Z,70.83
2022-10-20T12:12:07.621Z,70.62
2022-10-20T12:13:07.681Z,70.69
2022-10-20T12:14:07.691Z,69.37
2022-10-20T12:15:07.694Z,69.37
2022-10-20T12:16:08.726Z,69.34
2022-10-20T12:17:07.725Z,69.68
2022-10-20T12:18:07.733Z,69.57
2022-10-20T12:19:09.418Z,69.24
2022-10-20T12:20:08.064Z,69.37
2022-10-20T12:21:07.813Z,69.37
2022-10-20T12:22:07.856Z,69.57
2022-10-20T12:23:07.924Z,69.88
2022-10-20T12:24:08.125Z,70.12
2022-10-20T12:25:08.006Z,70.18
2022-10-20T12:26:08.129Z,69.81
2022-10-20T12:27:08.053Z,70.32
2022-10-20T12:28:08.095Z,69.98
2022-10-20T12:29:08.147Z,70.32
2022-10-20T12:30:08.208Z,70.18
2022-10-20T12:31:08.237Z,70.52
2022-10-20T12:32:08.292Z,70.93
2022-10-20T12:33:09.027Z,70.76
2022-10-20T12:34:08.421Z,71.16
2022-10-20T12:35:08.435Z,71.67
2022-10-20T12:36:08.421Z,71.91
2022-10-20T12:37:08.797Z,71.80
2022-10-20T12:38:08.558Z,71.91
2022-10-20T12:39:08.591Z,72.41
2022-10-20T12:40:08.611Z,72.61
2022-10-20T12:41:08.672Z,72.21
2022-10-20T12:42:09.423Z,72.34
2022-10-20T12:43:08.726Z,72.75
2022-10-20T12:44:08.737Z,72.55
2022-10-20T12:45:08.782Z,72.82
2022-10-20T12:46:08.779Z,72.75
2022-10-20T12:47:09.755Z,72.96
2022-10-20T12:48:08.764Z,73.16
2022-10-20T12:49:11.764Z,73.36
2022-10-20T12:50:08.962Z,73.26
2022-10-20T12:51:09.116Z,73.36
2022-10-20T12:52:08.985Z,73.36
2022-10-20T12:53:08.966Z,73.57
2022-10-20T12:54:09.005Z,73.57
2022-10-20T12:55:09.285Z,73.57